Bagotville, Canada
Current Conditions -  °F | °C
As of 8:00 AM on Wednesday 26 Nov 2014 (Local Time) from CYBG Reporting Station
Broken Clouds Broken Clouds  
Wind Chill: 13°   Ceiling: 24000
Heat Index: 23°   Visibility: 25mi
Dew Point: 16°   Wind: 9mph
Humidity: 74%   Direction: 270°W
Pressure: 30.22"   Gusts: NA
Location:  48.34°N, 71°W
Report Text: CYBG 261300Z 27008KT 25SM FEW030 FEW080 BKN240 M05/M09 A3022 RMK SC2AC1CI2 SLP243
Loading
Personal Weather Stations






























Interactive Weather Map New forecast layout! Learn more

10-Day Weather Forecast

Advertisements
Track Severe Weather on mobile